sensor_id;sensor_type;location;lat;lon;timestamp;temperature;humidity
71304;DHT22;59091;47.446;19.148;2023-10-08T00:02:03;19.30;42.32
71304;DHT22;59091;47.446;19.148;2023-10-08T00:04:32;19.31;42.37
71304;DHT22;59091;47.446;19.148;2023-10-08T00:07:05;19.37;41.90
71304;DHT22;59091;47.446;19.148;2023-10-08T00:09:34;19.37;41.98
71304;DHT22;59091;47.446;19.148;2023-10-08T00:12:03;19.40;41.97
71304;DHT22;59091;47.446;19.148;2023-10-08T00:14:29;19.41;41.95
71304;DHT22;59091;47.446;19.148;2023-10-08T00:16:54;19.41;42.16
71304;DHT22;59091;47.446;19.148;2023-10-08T00:19:20;19.41;42.37
71304;DHT22;59091;47.446;19.148;2023-10-08T00:21:46;19.37;42.67
71304;DHT22;59091;47.446;19.148;2023-10-08T00:24:14;19.34;42.82
71304;DHT22;59091;47.446;19.148;2023-10-08T00:26:40;19.32;42.82
71304;DHT22;59091;47.446;19.148;2023-10-08T00:29:07;19.34;42.72
71304;DHT22;59091;47.446;19.148;2023-10-08T00:31:46;19.34;42.57
71304;DHT22;59091;47.446;19.148;2023-10-08T00:34:14;19.31;43.04
71304;DHT22;59091;47.446;19.148;2023-10-08T00:36:41;19.24;43.05
71304;DHT22;59091;47.446;19.148;2023-10-08T00:39:08;19.30;42.66
71304;DHT22;59091;47.446;19.148;2023-10-08T00:41:40;19.31;43.00
71304;DHT22;59091;47.446;19.148;2023-10-08T00:44:08;19.28;42.71
71304;DHT22;59091;47.446;19.148;2023-10-08T00:46:36;19.28;42.80
71304;DHT22;59091;47.446;19.148;2023-10-08T00:49:08;19.27;42.83
71304;DHT22;59091;47.446;19.148;2023-10-08T00:51:55;19.20;43.48
71304;DHT22;59091;47.446;19.148;2023-10-08T00:54:27;19.21;43.26
71304;DHT22;59091;47.446;19.148;2023-10-08T00:56:59;19.20;43.58
71304;DHT22;59091;47.446;19.148;2023-10-08T00:59:29;19.13;43.25
71304;DHT22;59091;47.446;19.148;2023-10-08T01:02:06;19.11;43.43
71304;DHT22;59091;47.446;19.148;2023-10-08T01:04:33;19.07;43.67
71304;DHT22;59091;47.446;19.148;2023-10-08T01:07:01;19.00;43.39
71304;DHT22;59091;47.446;19.148;2023-10-08T01:09:35;18.99;43.31
71304;DHT22;59091;47.446;19.148;2023-10-08T01:12:19;19.09;43.03
71304;DHT22;59091;47.446;19.148;2023-10-08T01:14:54;19.00;43.55
71304;DHT22;59091;47.446;19.148;2023-10-08T01:17:21;19.03;43.57
71304;DHT22;59091;47.446;19.148;2023-10-08T01:19:51;19.02;43.53
71304;DHT22;59091;47.446;19.148;2023-10-08T01:22:21;18.96;43.98
71304;DHT22;59091;47.446;19.148;2023-10-08T01:24:48;18.93;43.97
71304;DHT22;59091;47.446;19.148;2023-10-08T01:27:17;18.76;44.16
71304;DHT22;59091;47.446;19.148;2023-10-08T01:29:51;18.86;44.24
71304;DHT22;59091;47.446;19.148;2023-10-08T01:32:20;18.83;44.70
71304;DHT22;59091;47.446;19.148;2023-10-08T01:34:47;18.82;44.49
71304;DHT22;59091;47.446;19.148;2023-10-08T01:37:15;18.79;44.62
71304;DHT22;59091;47.446;19.148;2023-10-08T01:39:47;18.89;44.71
71304;DHT22;59091;47.446;19.148;2023-10-08T01:42:18;18.85;44.72
71304;DHT22;59091;47.446;19.148;2023-10-08T01:44:47;18.86;44.64
71304;DHT22;59091;47.446;19.148;2023-10-08T01:47:16;18.90;44.11
71304;DHT22;59091;47.446;19.148;2023-10-08T01:49:43;18.99;43.97
71304;DHT22;59091;47.446;19.148;2023-10-08T01:52:14;19.13;44.09
71304;DHT22;59091;47.446;19.148;2023-10-08T01:54:49;19.06;43.47
71304;DHT22;59091;47.446;19.148;2023-10-08T01:57:16;19.03;43.72
71304;DHT22;59091;47.446;19.148;2023-10-08T01:59:42;19.13;44.11
71304;DHT22;59091;47.446;19.148;2023-10-08T02:02:09;19.09;43.92
71304;DHT22;59091;47.446;19.148;2023-10-08T02:04:35;19.14;44.03
71304;DHT22;59091;47.446;19.148;2023-10-08T02:07:04;18.97;44.16
71304;DHT22;59091;47.446;19.148;2023-10-08T02:09:33;19.03;44.13
71304;DHT22;59091;47.446;19.148;2023-10-08T02:11:58;19.11;44.28
71304;DHT22;59091;47.446;19.148;2023-10-08T02:14:24;19.10;44.21
71304;DHT22;59091;47.446;19.148;2023-10-08T02:16:50;18.96;44.65
71304;DHT22;59091;47.446;19.148;2023-10-08T02:19:21;18.93;44.98
71304;DHT22;59091;47.446;19.148;2023-10-08T02:21:53;18.93;44.99
71304;DHT22;59091;47.446;19.148;2023-10-08T02:24:20;18.85;45.26
71304;DHT22;59091;47.446;19.148;2023-10-08T02:26:47;18.83;45.41
71304;DHT22;59091;47.446;19.148;2023-10-08T02:29:13;18.82;45.46
71304;DHT22;59091;47.446;19.148;2023-10-08T02:31:39;18.83;45.59
71304;DHT22;59091;47.446;19.148;2023-10-08T02:34:08;18.79;45.71
71304;DHT22;59091;47.446;19.148;2023-10-08T02:36:35;18.76;45.83
71304;DHT22;59091;47.446;19.148;2023-10-08T02:39:06;18.69;46.14
71304;DHT22;59091;47.446;19.148;2023-10-08T02:41:41;18.53;46.47
71304;DHT22;59091;47.446;19.148;2023-10-08T02:44:08;18.52;46.62
71304;DHT22;59091;47.446;19.148;2023-10-08T02:46:42;18.55;46.60
71304;DHT22;59091;47.446;19.148;2023-10-08T02:49:08;18.51;46.53
71304;DHT22;59091;47.446;19.148;2023-10-08T02:51:39;18.56;46.45
71304;DHT22;59091;47.446;19.148;2023-10-08T02:54:07;18.52;46.46
71304;DHT22;59091;47.446;19.148;2023-10-08T02:56:33;18.60;46.25
71304;DHT22;59091;47.446;19.148;2023-10-08T02:58:59;18.65;46.03
71304;DHT22;59091;47.446;19.148;2023-10-08T03:01:26;18.62;46.04
71304;DHT22;59091;47.446;19.148;2023-10-08T03:03:51;18.65;46.20
71304;DHT22;59091;47.446;19.148;2023-10-08T03:06:28;18.62;46.24
71304;DHT22;59091;47.446;19.148;2023-10-08T03:08:57;18.65;46.61
71304;DHT22;59091;47.446;19.148;2023-10-08T03:11:28;18.62;46.63
71304;DHT22;59091;47.446;19.148;2023-10-08T03:13:53;18.45;46.86
71304;DHT22;59091;47.446;19.148;2023-10-08T03:16:21;18.46;47.32
71304;DHT22;59091;47.446;19.148;2023-10-08T03:18:53;18.45;47.41
71304;DHT22;59091;47.446;19.148;2023-10-08T03:21:20;18.46;47.72
71304;DHT22;59091;47.446;19.148;2023-10-08T03:23:46;18.35;47.85
71304;DHT22;59091;47.446;19.148;2023-10-08T03:26:13;18.31;47.83
71304;DHT22;59091;47.446;19.148;2023-10-08T03:28:54;18.39;47.91
71304;DHT22;59091;47.446;19.148;2023-10-08T03:31:23;18.31;48.03
71304;DHT22;59091;47.446;19.148;2023-10-08T03:34:10;18.38;47.98
71304;DHT22;59091;47.446;19.148;2023-10-08T03:36:39;18.35;48.21
71304;DHT22;59091;47.446;19.148;2023-10-08T03:39:11;18.34;48.25
71304;DHT22;59091;47.446;19.148;2023-10-08T03:41:42;18.35;48.52
71304;DHT22;59091;47.446;19.148;2023-10-08T03:44:17;18.35;48.38
71304;DHT22;59091;47.446;19.148;2023-10-08T03:46:42;18.35;48.69
71304;DHT22;59091;47.446;19.148;2023-10-08T03:49:11;18.34;48.62
71304;DHT22;59091;47.446;19.148;2023-10-08T03:51:46;18.31;48.76
71304;DHT22;59091;47.446;19.148;2023-10-08T03:54:13;18.29;48.79
71304;DHT22;59091;47.446;19.148;2023-10-08T03:56:54;18.28;48.82
71304;DHT22;59091;47.446;19.148;2023-10-08T03:59:20;18.28;48.75
71304;DHT22;59091;47.446;19.148;2023-10-08T04:01:55;18.31;48.74
71304;DHT22;59091;47.446;19.148;2023-10-08T04:04:25;18.27;49.00
71304;DHT22;59091;47.446;19.148;2023-10-08T04:07:15;18.24;49.39
71304;DHT22;59091;47.446;19.148;2023-10-08T04:09:51;18.17;50.19
71304;DHT22;59091;47.446;19.148;2023-10-08T04:12:30;18.11;50.68
71304;DHT22;59091;47.446;19.148;2023-10-08T04:15:02;18.04;51.43
71304;DHT22;59091;47.446;19.148;2023-10-08T04:17:35;17.96;51.89
71304;DHT22;59091;47.446;19.148;2023-10-08T04:20:13;17.91;52.02
71304;DHT22;59091;47.446;19.148;2023-10-08T04:22:57;17.87;52.63
71304;DHT22;59091;47.446;19.148;2023-10-08T04:25:28;17.86;52.43
71304;DHT22;59091;47.446;19.148;2023-10-08T04:28:03;17.80;52.43
71304;DHT22;59091;47.446;19.148;2023-10-08T04:30:32;17.74;52.89
71304;DHT22;59091;47.446;19.148;2023-10-08T04:33:08;17.70;53.27
71304;DHT22;59091;47.446;19.148;2023-10-08T04:35:38;17.67;53.20
71304;DHT22;59091;47.446;19.148;2023-10-08T04:38:30;17.67;53.05
71304;DHT22;59091;47.446;19.148;2023-10-08T04:41:01;17.66;53.15
71304;DHT22;59091;47.446;19.148;2023-10-08T04:43:33;17.63;53.05
71304;DHT22;59091;47.446;19.148;2023-10-08T04:46:03;17.64;53.36
71304;DHT22;59091;47.446;19.148;2023-10-08T04:48:48;17.62;52.71
71304;DHT22;59091;47.446;19.148;2023-10-08T04:51:15;17.60;52.72
71304;DHT22;59091;47.446;19.148;2023-10-08T04:53:43;17.59;52.90
71304;DHT22;59091;47.446;19.148;2023-10-08T04:56:11;17.63;52.25
71304;DHT22;59091;47.446;19.148;2023-10-08T04:58:43;17.67;52.26
71304;DHT22;59091;47.446;19.148;2023-10-08T05:01:13;17.71;52.21
71304;DHT22;59091;47.446;19.148;2023-10-08T05:03:57;17.73;52.21
71304;DHT22;59091;47.446;19.148;2023-10-08T05:06:27;17.76;52.38
71304;DHT22;59091;47.446;19.148;2023-10-08T05:09:12;17.71;52.21
71304;DHT22;59091;47.446;19.148;2023-10-08T05:11:49;17.78;51.99
71304;DHT22;59091;47.446;19.148;2023-10-08T05:14:22;18.00;51.67
71304;DHT22;59091;47.446;19.148;2023-10-08T05:17:06;18.17;51.69
71304;DHT22;59091;47.446;19.148;2023-10-08T05:19:36;18.39;51.07
71304;DHT22;59091;47.446;19.148;2023-10-08T05:22:26;18.68;50.62
71304;DHT22;59091;47.446;19.148;2023-10-08T05:24:55;18.83;49.88
71304;DHT22;59091;47.446;19.148;2023-10-08T05:27:53;18.95;49.57
71304;DHT22;59091;47.446;19.148;2023-10-08T05:30:20;19.03;49.31
71304;DHT22;59091;47.446;19.148;2023-10-08T05:33:08;19.27;48.94
71304;DHT22;59091;47.446;19.148;2023-10-08T05:35:44;19.67;48.59
71304;DHT22;59091;47.446;19.148;2023-10-08T05:38:11;19.86;47.39
71304;DHT22;59091;47.446;19.148;2023-10-08T05:41:03;20.12;46.81
71304;DHT22;59091;47.446;19.148;2023-10-08T05:43:31;20.26;46.26
71304;DHT22;59091;47.446;19.148;2023-10-08T05:46:15;20.37;46.32
71304;DHT22;59091;47.446;19.148;2023-10-08T05:48:54;20.57;45.98
71304;DHT22;59091;47.446;19.148;2023-10-08T05:51:42;20.69;45.32
71304;DHT22;59091;47.446;19.148;2023-10-08T05:54:15;20.73;45.32
71304;DHT22;59091;47.446;19.148;2023-10-08T05:56:53;20.87;45.34
71304;DHT22;59091;47.446;19.148;2023-10-08T05:59:32;20.87;45.56
71304;DHT22;59091;47.446;19.148;2023-10-08T06:02:16;20.91;45.42
71304;DHT22;59091;47.446;19.148;2023-10-08T06:05:03;21.00;45.35
71304;DHT22;59091;47.446;19.148;2023-10-08T06:07:38;20.98;45.31
71304;DHT22;59091;47.446;19.148;2023-10-08T06:12:59;21.17;45.22
71304;DHT22;59091;47.446;19.148;2023-10-08T06:15:42;21.08;45.10
71304;DHT22;59091;47.446;19.148;2023-10-08T06:18:18;21.18;45.20
71304;DHT22;59091;47.446;19.148;2023-10-08T06:20:45;21.22;45.20
71304;DHT22;59091;47.446;19.148;2023-10-08T06:23:15;21.30;45.33
71304;DHT22;59091;47.446;19.148;2023-10-08T06:25:45;21.30;45.42
71304;DHT22;59091;47.446;19.148;2023-10-08T06:28:14;21.24;45.28
71304;DHT22;59091;47.446;19.148;2023-10-08T06:30:40;21.24;45.23
71304;DHT22;59091;47.446;19.148;2023-10-08T06:33:09;21.25;45.67
71304;DHT22;59091;47.446;19.148;2023-10-08T06:35:35;21.45;45.70
71304;DHT22;59091;47.446;19.148;2023-10-08T06:38:01;21.48;45.19
71304;DHT22;59091;47.446;19.148;2023-10-08T06:40:34;21.39;45.53
71304;DHT22;59091;47.446;19.148;2023-10-08T06:43:02;21.42;45.30
71304;DHT22;59091;47.446;19.148;2023-10-08T06:45:41;21.37;45.46
71304;DHT22;59091;47.446;19.148;2023-10-08T06:48:07;21.46;45.56
71304;DHT22;59091;47.446;19.148;2023-10-08T06:50:33;21.43;45.50
71304;DHT22;59091;47.446;19.148;2023-10-08T06:53:03;21.43;45.42
71304;DHT22;59091;47.446;19.148;2023-10-08T06:55:34;21.31;45.51
71304;DHT22;59091;47.446;19.148;2023-10-08T06:58:03;21.32;45.41
71304;DHT22;59091;47.446;19.148;2023-10-08T07:00:34;21.34;46.44
71304;DHT22;59091;47.446;19.148;2023-10-08T07:03:11;21.31;46.11
71304;DHT22;59091;47.446;19.148;2023-10-08T07:05:44;21.11;46.45
71304;DHT22;59091;47.446;19.148;2023-10-08T07:08:22;21.10;46.45
71304;DHT22;59091;47.446;19.148;2023-10-08T07:10:51;21.04;46.89
71304;DHT22;59091;47.446;19.148;2023-10-08T07:13:19;21.05;47.02
71304;DHT22;59091;47.446;19.148;2023-10-08T07:15:48;21.12;46.89
71304;DHT22;59091;47.446;19.148;2023-10-08T07:18:14;20.97;47.01
71304;DHT22;59091;47.446;19.148;2023-10-08T07:20:44;21.01;46.98
71304;DHT22;59091;47.446;19.148;2023-10-08T07:23:11;21.07;47.56
71304;DHT22;59091;47.446;19.148;2023-10-08T07:25:57;21.15;46.96
71304;DHT22;59091;47.446;19.148;2023-10-08T07:28:40;21.22;46.99
71304;DHT22;59091;47.446;19.148;2023-10-08T07:31:23;21.27;46.99
71304;DHT22;59091;47.446;19.148;2023-10-08T07:33:50;21.28;46.81
71304;DHT22;59091;47.446;19.148;2023-10-08T07:36:25;21.39;47.48
71304;DHT22;59091;47.446;19.148;2023-10-08T07:38:52;21.22;47.22
71304;DHT22;59091;47.446;19.148;2023-10-08T07:41:17;21.17;47.69
71304;DHT22;59091;47.446;19.148;2023-10-08T07:43:46;21.15;47.71
71304;DHT22;59091;47.446;19.148;2023-10-08T07:46:23;21.27;47.95
71304;DHT22;59091;47.446;19.148;2023-10-08T07:48:50;21.27;48.07
71304;DHT22;59091;47.446;19.148;2023-10-08T07:51:16;21.21;48.21
71304;DHT22;59091;47.446;19.148;2023-10-08T07:53:43;21.28;48.48
71304;DHT22;59091;47.446;19.148;2023-10-08T07:56:08;21.21;48.68
71304;DHT22;59091;47.446;19.148;2023-10-08T07:58:34;21.34;48.82
71304;DHT22;59091;47.446;19.148;2023-10-08T08:01:08;21.41;49.24
71304;DHT22;59091;47.446;19.148;2023-10-08T08:03:39;21.27;49.27
71304;DHT22;59091;47.446;19.148;2023-10-08T08:06:07;21.42;49.72
71304;DHT22;59091;47.446;19.148;2023-10-08T08:08:36;21.46;49.26
71304;DHT22;59091;47.446;19.148;2023-10-08T08:11:06;21.58;49.15
71304;DHT22;59091;47.446;19.148;2023-10-08T08:13:37;21.65;48.91
71304;DHT22;59091;47.446;19.148;2023-10-08T08:16:03;21.52;49.90
71304;DHT22;59091;47.446;19.148;2023-10-08T08:18:46;21.55;49.76
71304;DHT22;59091;47.446;19.148;2023-10-08T08:21:13;21.61;49.64
71304;DHT22;59091;47.446;19.148;2023-10-08T08:23:46;21.61;49.99
71304;DHT22;59091;47.446;19.148;2023-10-08T08:26:16;21.70;49.84
71304;DHT22;59091;47.446;19.148;2023-10-08T08:29:00;21.72;49.55
71304;DHT22;59091;47.446;19.148;2023-10-08T08:31:28;21.80;49.52
71304;DHT22;59091;47.446;19.148;2023-10-08T08:33:58;21.88;49.67
71304;DHT22;59091;47.446;19.148;2023-10-08T08:36:29;21.96;49.37
71304;DHT22;59091;47.446;19.148;2023-10-08T08:38:55;22.06;49.21
71304;DHT22;59091;47.446;19.148;2023-10-08T08:41:21;22.04;50.00
71304;DHT22;59091;47.446;19.148;2023-10-08T08:46:15;22.25;48.86
71304;DHT22;59091;47.446;19.148;2023-10-08T08:48:42;22.21;48.83
71304;DHT22;59091;47.446;19.148;2023-10-08T08:51:09;22.24;48.97
71304;DHT22;59091;47.446;19.148;2023-10-08T08:53:39;22.34;49.17
71304;DHT22;59091;47.446;19.148;2023-10-08T08:56:09;22.54;48.63
71304;DHT22;59091;47.446;19.148;2023-10-08T08:58:35;22.68;48.91
71304;DHT22;59091;47.446;19.148;2023-10-08T09:01:03;22.61;48.93
71304;DHT22;59091;47.446;19.148;2023-10-08T09:03:30;22.50;48.90
71304;DHT22;59091;47.446;19.148;2023-10-08T09:05:59;22.61;48.75
71304;DHT22;59091;47.446;19.148;2023-10-08T09:08:28;22.68;49.17
71304;DHT22;59091;47.446;19.148;2023-10-08T09:10:59;22.52;49.22
71304;DHT22;59091;47.446;19.148;2023-10-08T09:13:27;22.50;49.45
71304;DHT22;59091;47.446;19.148;2023-10-08T09:15:56;22.62;49.03
71304;DHT22;59091;47.446;19.148;2023-10-08T09:18:24;22.57;49.20
71304;DHT22;59091;47.446;19.148;2023-10-08T09:20:52;22.45;49.49
71304;DHT22;59091;47.446;19.148;2023-10-08T09:23:18;22.55;49.37
71304;DHT22;59091;47.446;19.148;2023-10-08T09:25:47;22.58;50.01
71304;DHT22;59091;47.446;19.148;2023-10-08T09:28:17;22.65;49.87
71304;DHT22;59091;47.446;19.148;2023-10-08T09:30:43;22.67;49.40
71304;DHT22;59091;47.446;19.148;2023-10-08T09:33:11;22.81;49.09
71304;DHT22;59091;47.446;19.148;2023-10-08T09:35:43;22.69;49.59
71304;DHT22;59091;47.446;19.148;2023-10-08T09:38:09;22.72;49.72
71304;DHT22;59091;47.446;19.148;2023-10-08T09:40:43;22.58;49.98
71304;DHT22;59091;47.446;19.148;2023-10-08T09:43:13;22.62;50.27
71304;DHT22;59091;47.446;19.148;2023-10-08T09:45:43;22.61;50.20
71304;DHT22;59091;47.446;19.148;2023-10-08T09:48:15;22.67;50.30
71304;DHT22;59091;47.446;19.148;2023-10-08T09:50:41;22.68;50.46
71304;DHT22;59091;47.446;19.148;2023-10-08T09:53:09;22.69;50.48
71304;DHT22;59091;47.446;19.148;2023-10-08T09:55:56;22.65;50.65
71304;DHT22;59091;47.446;19.148;2023-10-08T09:58:23;22.67;50.36
71304;DHT22;59091;47.446;19.148;2023-10-08T10:00:50;22.79;50.19
71304;DHT22;59091;47.446;19.148;2023-10-08T10:03:18;22.64;50.85
71304;DHT22;59091;47.446;19.148;2023-10-08T10:05:44;22.64;50.51
71304;DHT22;59091;47.446;19.148;2023-10-08T10:08:10;22.69;50.69
71304;DHT22;59091;47.446;19.148;2023-10-08T10:10:37;22.52;51.13
71304;DHT22;59091;47.446;19.148;2023-10-08T10:13:09;22.48;51.30
71304;DHT22;59091;47.446;19.148;2023-10-08T10:15:38;22.51;51.25
71304;DHT22;59091;47.446;19.148;2023-10-08T10:18:33;22.50;51.17
71304;DHT22;59091;47.446;19.148;2023-10-08T10:21:24;22.37;51.81
71304;DHT22;59091;47.446;19.148;2023-10-08T10:23:47;22.40;51.79
71304;DHT22;59091;47.446;19.148;2023-10-08T10:26:31;22.29;52.22
71304;DHT22;59091;47.446;19.148;2023-10-08T10:31:58;22.34;50.90
71304;DHT22;59091;47.446;19.148;2023-10-08T10:34:27;22.43;51.06
71304;DHT22;59091;47.446;19.148;2023-10-08T10:36:54;22.10;52.08
71304;DHT22;59091;47.446;19.148;2023-10-08T10:39:40;21.99;52.74
71304;DHT22;59091;47.446;19.148;2023-10-08T10:42:07;22.13;52.58
71304;DHT22;59091;47.446;19.148;2023-10-08T10:44:46;22.24;52.51
71304;DHT22;59091;47.446;19.148;2023-10-08T10:47:15;22.31;52.05
71304;DHT22;59091;47.446;19.148;2023-10-08T10:49:41;22.47;51.67
71304;DHT22;59091;47.446;19.148;2023-10-08T10:52:26;22.68;51.12
71304;DHT22;59091;47.446;19.148;2023-10-08T10:55:04;22.75;50.30
71304;DHT22;59091;47.446;19.148;2023-10-08T10:57:50;22.64;49.46
71304;DHT22;59091;47.446;19.148;2023-10-08T11:00:29;22.48;49.80
71304;DHT22;59091;47.446;19.148;2023-10-08T11:02:58;22.40;49.90
71304;DHT22;59091;47.446;19.148;2023-10-08T11:05:36;22.36;49.55
71304;DHT22;59091;47.446;19.148;2023-10-08T11:08:04;22.43;48.61
71304;DHT22;59091;47.446;19.148;2023-10-08T11:10:37;22.64;47.36
71304;DHT22;59091;47.446;19.148;2023-10-08T11:13:05;22.18;47.16
71304;DHT22;59091;47.446;19.148;2023-10-08T11:15:40;22.21;47.15
71304;DHT22;59091;47.446;19.148;2023-10-08T11:18:13;21.90;47.69
71304;DHT22;59091;47.446;19.148;2023-10-08T11:20:40;21.99;48.08
71304;DHT22;59091;47.446;19.148;2023-10-08T11:23:41;21.89;48.69
71304;DHT22;59091;47.446;19.148;2023-10-08T11:26:07;21.78;49.05
71304;DHT22;59091;47.446;19.148;2023-10-08T11:28:35;21.55;49.13
71304;DHT22;59091;47.446;19.148;2023-10-08T11:31:04;21.48;48.25
71304;DHT22;59091;47.446;19.148;2023-10-08T11:33:35;21.22;48.17
71304;DHT22;59091;47.446;19.148;2023-10-08T11:36:05;21.37;48.35
71304;DHT22;59091;47.446;19.148;2023-10-08T11:39:10;21.43;48.84
71304;DHT22;59091;47.446;19.148;2023-10-08T11:42:06;21.17;47.33
71304;DHT22;59091;47.446;19.148;2023-10-08T11:44:51;21.02;47.82
71304;DHT22;59091;47.446;19.148;2023-10-08T11:47:17;21.12;47.37
71304;DHT22;59091;47.446;19.148;2023-10-08T11:49:46;21.01;46.91
71304;DHT22;59091;47.446;19.148;2023-10-08T11:52:15;20.73;47.14
71304;DHT22;59091;47.446;19.148;2023-10-08T11:54:42;20.70;46.50
71304;DHT22;59091;47.446;19.148;2023-10-08T11:57:07;20.39;47.21
71304;DHT22;59091;47.446;19.148;2023-10-08T11:59:34;20.37;47.32
71304;DHT22;59091;47.446;19.148;2023-10-08T12:02:05;20.25;47.56
71304;DHT22;59091;47.446;19.148;2023-10-08T12:04:31;20.12;47.91
71304;DHT22;59091;47.446;19.148;2023-10-08T12:06:57;19.83;48.33
71304;DHT22;59091;47.446;19.148;2023-10-08T12:09:22;19.75;48.73
71304;DHT22;59091;47.446;19.148;2023-10-08T12:11:53;19.69;49.23
71304;DHT22;59091;47.446;19.148;2023-10-08T12:14:19;19.81;48.91
71304;DHT22;59091;47.446;19.148;2023-10-08T12:16:44;19.50;48.84
71304;DHT22;59091;47.446;19.148;2023-10-08T12:19:11;19.17;49.37
71304;DHT22;59091;47.446;19.148;2023-10-08T12:21:43;19.40;49.20
71304;DHT22;59091;47.446;19.148;2023-10-08T12:24:12;19.09;49.60
71304;DHT22;59091;47.446;19.148;2023-10-08T12:26:38;19.24;49.29
71304;DHT22;59091;47.446;19.148;2023-10-08T12:29:11;19.13;49.39
71304;DHT22;59091;47.446;19.148;2023-10-08T12:31:40;19.02;49.60
71304;DHT22;59091;47.446;19.148;2023-10-08T12:34:05;19.10;49.41
71304;DHT22;59091;47.446;19.148;2023-10-08T12:36:31;19.06;49.29
71304;DHT22;59091;47.446;19.148;2023-10-08T12:39:02;19.07;49.34
71304;DHT22;59091;47.446;19.148;2023-10-08T12:41:44;19.17;48.77
71304;DHT22;59091;47.446;19.148;2023-10-08T12:44:10;19.02;48.70
71304;DHT22;59091;47.446;19.148;2023-10-08T12:46:36;18.99;49.08
71304;DHT22;59091;47.446;19.148;2023-10-08T12:49:01;18.89;49.03
71304;DHT22;59091;47.446;19.148;2023-10-08T12:51:28;18.85;49.52
71304;DHT22;59091;47.446;19.148;2023-10-08T12:53:57;18.96;49.26
71304;DHT22;59091;47.446;19.148;2023-10-08T12:56:36;18.82;49.09
71304;DHT22;59091;47.446;19.148;2023-10-08T12:59:05;19.02;48.81
71304;DHT22;59091;47.446;19.148;2023-10-08T13:01:36;18.77;46.93
71304;DHT22;59091;47.446;19.148;2023-10-08T13:04:06;18.70;46.37
71304;DHT22;59091;47.446;19.148;2023-10-08T13:06:41;18.55;46.46
71304;DHT22;59091;47.446;19.148;2023-10-08T13:09:10;18.32;46.51
71304;DHT22;59091;47.446;19.148;2023-10-08T13:11:38;18.34;46.49
71304;DHT22;59091;47.446;19.148;2023-10-08T13:14:04;18.21;46.35
71304;DHT22;59091;47.446;19.148;2023-10-08T13:16:30;18.24;46.54
71304;DHT22;59091;47.446;19.148;2023-10-08T13:19:03;18.35;46.37
71304;DHT22;59091;47.446;19.148;2023-10-08T13:21:28;18.53;46.10
71304;DHT22;59091;47.446;19.148;2023-10-08T13:23:55;18.49;46.01
71304;DHT22;59091;47.446;19.148;2023-10-08T13:26:26;18.41;46.53
71304;DHT22;59091;47.446;19.148;2023-10-08T13:28:56;18.36;48.95
71304;DHT22;59091;47.446;19.148;2023-10-08T13:31:22;18.53;48.98
71304;DHT22;59091;47.446;19.148;2023-10-08T13:33:48;18.36;46.27
71304;DHT22;59091;47.446;19.148;2023-10-08T13:36:18;18.34;46.52
71304;DHT22;59091;47.446;19.148;2023-10-08T13:38:44;18.25;46.44
71304;DHT22;59091;47.446;19.148;2023-10-08T13:41:11;18.07;46.86
71304;DHT22;59091;47.446;19.148;2023-10-08T13:43:44;17.94;47.53
71304;DHT22;59091;47.446;19.148;2023-10-08T13:46:17;18.07;47.06
71304;DHT22;59091;47.446;19.148;2023-10-08T13:48:45;18.01;47.06
71304;DHT22;59091;47.446;19.148;2023-10-08T13:51:14;18.22;46.89
71304;DHT22;59091;47.446;19.148;2023-10-08T13:53:48;17.96;47.34
71304;DHT22;59091;47.446;19.148;2023-10-08T13:56:18;17.83;47.32
71304;DHT22;59091;47.446;19.148;2023-10-08T13:58:46;17.80;47.80
71304;DHT22;59091;47.446;19.148;2023-10-08T14:01:14;17.87;47.19
71304;DHT22;59091;47.446;19.148;2023-10-08T14:03:47;18.07;47.17
71304;DHT22;59091;47.446;19.148;2023-10-08T14:06:14;18.14;46.47
71304;DHT22;59091;47.446;19.148;2023-10-08T14:08:42;17.90;47.33
71304;DHT22;59091;47.446;19.148;2023-10-08T14:11:10;17.80;47.54
71304;DHT22;59091;47.446;19.148;2023-10-08T14:13:38;17.93;47.85
71304;DHT22;59091;47.446;19.148;2023-10-08T14:16:08;17.91;46.87
71304;DHT22;59091;47.446;19.148;2023-10-08T14:18:34;17.71;47.60
71304;DHT22;59091;47.446;19.148;2023-10-08T14:21:11;17.73;47.62
71304;DHT22;59091;47.446;19.148;2023-10-08T14:23:37;17.69;47.60
71304;DHT22;59091;47.446;19.148;2023-10-08T14:26:09;17.74;47.29
71304;DHT22;59091;47.446;19.148;2023-10-08T14:28:35;17.69;46.79
71304;DHT22;59091;47.446;19.148;2023-10-08T14:31:17;17.74;46.77
71304;DHT22;59091;47.446;19.148;2023-10-08T14:33:45;17.81;46.52
71304;DHT22;59091;47.446;19.148;2023-10-08T14:36:29;17.70;45.99
71304;DHT22;59091;47.446;19.148;2023-10-08T14:39:13;17.76;46.15
71304;DHT22;59091;47.446;19.148;2023-10-08T14:41:57;17.59;46.08
71304;DHT22;59091;47.446;19.148;2023-10-08T14:44:41;17.81;46.04
71304;DHT22;59091;47.446;19.148;2023-10-08T14:47:07;17.87;45.69
71304;DHT22;59091;47.446;19.148;2023-10-08T14:49:32;17.90;45.45
71304;DHT22;59091;47.446;19.148;2023-10-08T14:51:59;17.83;45.16
71304;DHT22;59091;47.446;19.148;2023-10-08T14:54:24;17.77;45.68
71304;DHT22;59091;47.446;19.148;2023-10-08T14:56:50;17.54;44.84
71304;DHT22;59091;47.446;19.148;2023-10-08T14:59:17;17.47;44.75
71304;DHT22;59091;47.446;19.148;2023-10-08T15:01:46;17.56;45.08
71304;DHT22;59091;47.446;19.148;2023-10-08T15:04:13;17.42;45.08
71304;DHT22;59091;47.446;19.148;2023-10-08T15:06:39;17.26;45.52
71304;DHT22;59091;47.446;19.148;2023-10-08T15:09:05;17.20;45.32
71304;DHT22;59091;47.446;19.148;2023-10-08T15:11:33;17.12;45.25
71304;DHT22;59091;47.446;19.148;2023-10-08T15:14:04;17.05;44.94
71304;DHT22;59091;47.446;19.148;2023-10-08T15:16:37;17.09;45.81
71304;DHT22;59091;47.446;19.148;2023-10-08T15:19:03;17.06;45.58
71304;DHT22;59091;47.446;19.148;2023-10-08T15:21:30;16.96;45.44
71304;DHT22;59091;47.446;19.148;2023-10-08T15:23:59;17.01;45.48
71304;DHT22;59091;47.446;19.148;2023-10-08T15:26:32;16.81;46.00
71304;DHT22;59091;47.446;19.148;2023-10-08T15:28:57;16.72;46.37
71304;DHT22;59091;47.446;19.148;2023-10-08T15:31:22;16.60;46.62
71304;DHT22;59091;47.446;19.148;2023-10-08T15:33:49;16.63;46.61
71304;DHT22;59091;47.446;19.148;2023-10-08T15:36:14;16.57;47.16
71304;DHT22;59091;47.446;19.148;2023-10-08T15:38:40;16.48;47.49
71304;DHT22;59091;47.446;19.148;2023-10-08T15:41:05;16.27;48.13
71304;DHT22;59091;47.446;19.148;2023-10-08T15:43:31;16.27;48.34
71304;DHT22;59091;47.446;19.148;2023-10-08T15:45:56;16.31;48.48
71304;DHT22;59091;47.446;19.148;2023-10-08T15:48:22;16.30;48.58